Terminal Aerodrome Forecast
Issued by NWS Quad Cities IA IL

Home | Current Version | Previous Version | Text Only | Print | Product List | Glossary On
Versions: 1 2 3 4 5 6 7 8 9 10 11 12 13 14 15 16 17 18 19 20 21 22 23
000
FTUS43 KDVN 151900 AAA
TAFDBQ
TAF AMD
KDBQ 151958Z 1520/1618 14013KT 4SM -RA BR OVC004
      TEMPO 1520/1524 2SM -RADZ BR OVC002
     FM160000 10006KT 2SM -RA BR OVC003
     FM160700 34012G18KT 2SM -RA BR OVC005
     FM161500 33012G20KT 5SM BR OVC010=

USA.gov is the U.S. government's official web portal to all federal, state and local government web resources and services.